Longrun, Missouri
Current Conditions -  °F | °C
As of 6:53 AM on Friday 31 Oct 2014 (Local Time) from KBPK Reporting Station
Clear Clear  
Wind Chill: 44°   Ceiling: Unl
Heat Index: 47°   Visibility: 10mi
Dew Point: 40°   Wind: 6mph
Humidity: 77%   Direction: 330°NNW
Pressure: 30.17"   Gusts: NA
Location:  36.5847°N, 92.7117°W
Report Text: KBPK 311153Z AUTO 33005KT 10SM CLR 08/04 A3017 RMK AO2 SLP213 T00830044 10117 20083 53027 $
Loading
Personal Weather Stations






























Interactive Weather Map
Tropical Storm Tracking
New forecast layout! Learn more

10-Day Weather Forecast

Advertisements
Track Severe Weather on mobile